2026/07/25

Sensor Date Temp./Hum.
h4-hermonville 25-07-2026 - 23:58 22.9°C / 50.5%
h2-hermonville 25-07-2026 - 23:54 24.2°C / 49.5%
h1-hermonville 25-07-2026 - 23:54 21.9°C / 54.5%
h3-hermonville 25-07-2026 - 23:50 22.5°C / 52.5%
h4-hermonville 25-07-2026 - 23:48 23.1°C / 51.5%
h2-hermonville 25-07-2026 - 23:44 24.2°C / 50%
h1-hermonville 25-07-2026 - 23:44 21.9°C / 55.5%
h3-hermonville 25-07-2026 - 23:40 22.6°C / 53%
h4-hermonville 25-07-2026 - 23:38 23.1°C / 51.5%
h2-hermonville 25-07-2026 - 23:34 23.8°C / 51.5%
h1-hermonville 25-07-2026 - 23:34 21.9°C / 55.5%
h3-hermonville 25-07-2026 - 23:30 22.8°C / 54%
h4-hermonville 25-07-2026 - 23:28 23.2°C / 52.5%
h2-hermonville 25-07-2026 - 23:24 24.3°C / 50.5%
h1-hermonville 25-07-2026 - 23:24 22.1°C / 56%
h3-hermonville 25-07-2026 - 23:20 22.9°C / 54%
h4-hermonville 25-07-2026 - 23:18 23.2°C / 52%
h2-hermonville 25-07-2026 - 23:14 24.6°C / 50%
h1-hermonville 25-07-2026 - 23:14 22.3°C / 56%
h3-hermonville 25-07-2026 - 23:10 23°C / 54%
h4-hermonville 25-07-2026 - 23:08 23.4°C / 52%
h2-hermonville 25-07-2026 - 23:04 24.8°C / 50.5%
h1-hermonville 25-07-2026 - 23:04 22.5°C / 55.5%
h3-hermonville 25-07-2026 - 23:00 23.1°C / 53.5%
h4-hermonville 25-07-2026 - 22:58 23.6°C / 52%
h2-hermonville 25-07-2026 - 22:54 24.7°C / 50.5%
h1-hermonville 25-07-2026 - 22:54 22.7°C / 55.5%
h3-hermonville 25-07-2026 - 22:50 23.3°C / 53.5%
h4-hermonville 25-07-2026 - 22:48 23.6°C / 52%
h2-hermonville 25-07-2026 - 22:44 24.9°C / 50.5%
h1-hermonville 25-07-2026 - 22:44 22.8°C / 55.5%
h3-hermonville 25-07-2026 - 22:40 23.5°C / 53%
h4-hermonville 25-07-2026 - 22:38 23.8°C / 51.5%
h2-hermonville 25-07-2026 - 22:34 25.1°C / 49.5%
h1-hermonville 25-07-2026 - 22:34 23°C / 55%
h3-hermonville 25-07-2026 - 22:30 23.7°C / 52.5%
h4-hermonville 25-07-2026 - 22:28 23.9°C / 51%
h2-hermonville 25-07-2026 - 22:24 25.2°C / 49.5%
h1-hermonville 25-07-2026 - 22:24 23.2°C / 54.5%
h3-hermonville 25-07-2026 - 22:20 23.8°C / 52%
h4-hermonville 25-07-2026 - 22:18 24.1°C / 51%
h2-hermonville 25-07-2026 - 22:14 25.2°C / 49.5%
h1-hermonville 25-07-2026 - 22:14 23.5°C / 54%
h3-hermonville 25-07-2026 - 22:10 24°C / 51.5%
h3-hermonville 25-07-2026 - 22:00 24.4°C / 51%
h4-hermonville 25-07-2026 - 21:58 24.5°C / 50%
h3-hermonville 25-07-2026 - 21:50 24.6°C / 49.5%
h3-hermonville 25-07-2026 - 21:40 25°C / 48%
h3-hermonville 25-07-2026 - 21:30 25.2°C / 46.5%
h3-hermonville 25-07-2026 - 21:20 25.3°C / 46.5%
h3-hermonville 25-07-2026 - 21:10 25.7°C / 46.5%
h3-hermonville 25-07-2026 - 21:00 26.2°C / 44%
h3-hermonville 25-07-2026 - 20:50 26.5°C / 42%
h3-hermonville 25-07-2026 - 20:40 26.7°C / 41.5%
h3-hermonville 25-07-2026 - 20:30 26.8°C / 40.5%
h3-hermonville 25-07-2026 - 20:20 27°C / 40%
h2-hermonville 25-07-2026 - 20:14 27.7°C / 40%
h3-hermonville 25-07-2026 - 20:10 27°C / 39.5%
h2-hermonville 25-07-2026 - 20:04 28.1°C / 39%
h3-hermonville 25-07-2026 - 20:00 27.1°C / 39.5%
h3-hermonville 25-07-2026 - 19:50 27.2°C / 39%
h2-hermonville 25-07-2026 - 19:44 31.3°C / 33.5%
h3-hermonville 25-07-2026 - 19:40 27.3°C / 38.5%
h3-hermonville 25-07-2026 - 19:30 27.4°C / 39%
h3-hermonville 25-07-2026 - 19:20 27.3°C / 38%
h3-hermonville 25-07-2026 - 19:10 27.4°C / 37.5%
h2-hermonville 25-07-2026 - 19:04 31.3°C / 33%
h3-hermonville 25-07-2026 - 19:00 27.3°C / 37.5%
h3-hermonville 25-07-2026 - 18:50 27.6°C / 36%
h3-hermonville 25-07-2026 - 18:40 27.6°C / 37%
h3-hermonville 25-07-2026 - 18:30 27.6°C / 37%
h4-hermonville 25-07-2026 - 18:28 26.8°C / 38.5%
h3-hermonville 25-07-2026 - 18:20 27.5°C / 36.5%
h2-hermonville 25-07-2026 - 18:14 31.8°C / 33%
h3-hermonville 25-07-2026 - 18:10 27.7°C / 38%
h3-hermonville 25-07-2026 - 18:00 27.8°C / 38.5%
h2-hermonville 25-07-2026 - 17:54 31.9°C / 32.5%
h3-hermonville 25-07-2026 - 17:50 27.8°C / 37.5%
h3-hermonville 25-07-2026 - 17:40 27.8°C / 38%
h2-hermonville 25-07-2026 - 17:34 31.6°C / 33.5%
h3-hermonville 25-07-2026 - 17:30 27.8°C / 38.5%
h1-hermonville 25-07-2026 - 17:24 27.6°C / 38.5%
h3-hermonville 25-07-2026 - 17:20 27.9°C / 37.5%
h1-hermonville 25-07-2026 - 17:14 27.3°C / 38%
h3-hermonville 25-07-2026 - 17:10 27.9°C / 37%
h3-hermonville 25-07-2026 - 16:50 27.7°C / 37%
h3-hermonville 25-07-2026 - 16:40 27.6°C / 37%
h3-hermonville 25-07-2026 - 16:30 27.5°C / 38%
h1-hermonville 25-07-2026 - 16:24 27.1°C / 39%
h3-hermonville 25-07-2026 - 16:10 27.3°C / 39%
h3-hermonville 25-07-2026 - 16:00 27.3°C / 39.5%
h3-hermonville 25-07-2026 - 15:40 27.1°C / 41%
h1-hermonville 25-07-2026 - 15:34 26.5°C / 42.5%
h3-hermonville 25-07-2026 - 15:30 27.1°C / 40%
h1-hermonville 25-07-2026 - 15:24 26.5°C / 42%
h2-hermonville 25-07-2026 - 15:14 25.7°C / 46%
h1-hermonville 25-07-2026 - 15:14 26.4°C / 42.5%
h3-hermonville 25-07-2026 - 15:10 27.5°C / 40.5%
h1-hermonville 25-07-2026 - 15:04 26.2°C / 43%
h3-hermonville 25-07-2026 - 15:00 26.9°C / 42%
h2-hermonville 25-07-2026 - 14:44 26°C / 46%
h1-hermonville 25-07-2026 - 14:44 25.9°C / 45.5%
h3-hermonville 25-07-2026 - 14:40 26.8°C / 43.5%
h3-hermonville 25-07-2026 - 14:30 26.5°C / 43.5%
h1-hermonville 25-07-2026 - 14:24 25.9°C / 43.5%
h3-hermonville 25-07-2026 - 14:20 26.7°C / 43.5%
h1-hermonville 25-07-2026 - 14:14 25.8°C / 44%
h1-hermonville 25-07-2026 - 14:04 25.8°C / 44%
h3-hermonville 25-07-2026 - 14:00 26.8°C / 42%
h2-hermonville 25-07-2026 - 13:54 25.3°C / 45.5%
h1-hermonville 25-07-2026 - 13:54 25.6°C / 43.5%
h3-hermonville 25-07-2026 - 13:40 25.8°C / 43%
h1-hermonville 25-07-2026 - 13:34 25.2°C / 46%
h3-hermonville 25-07-2026 - 13:30 26°C / 44%
h1-hermonville 25-07-2026 - 13:24 25.1°C / 47%
h3-hermonville 25-07-2026 - 13:20 25.9°C / 44%
h3-hermonville 25-07-2026 - 13:10 25.8°C / 44.5%
h3-hermonville 25-07-2026 - 13:00 26.1°C / 45%
h2-hermonville 25-07-2026 - 12:54 24°C / 51.5%
h3-hermonville 25-07-2026 - 12:50 26°C / 45%
h3-hermonville 25-07-2026 - 12:40 26°C / 45.5%
h1-hermonville 25-07-2026 - 12:34 24.7°C / 46%
h3-hermonville 25-07-2026 - 12:30 25.3°C / 45.5%
h1-hermonville 25-07-2026 - 12:24 24.5°C / 48%
h3-hermonville 25-07-2026 - 12:20 25.1°C / 46%
h1-hermonville 25-07-2026 - 12:14 24.3°C / 47.5%
h3-hermonville 25-07-2026 - 12:10 25°C / 46%
h2-hermonville 25-07-2026 - 12:04 23.9°C / 51%
h1-hermonville 25-07-2026 - 12:04 24.2°C / 48.5%
h3-hermonville 25-07-2026 - 12:00 24.9°C / 46%
h2-hermonville 25-07-2026 - 11:54 23.3°C / 52%
h1-hermonville 25-07-2026 - 11:54 24.3°C / 48.5%
h3-hermonville 25-07-2026 - 11:50 24.6°C / 47.5%
h1-hermonville 25-07-2026 - 11:44 24.1°C / 48.5%
h3-hermonville 25-07-2026 - 11:40 24.3°C / 48%
h2-hermonville 25-07-2026 - 11:34 22.9°C / 54.5%
h1-hermonville 25-07-2026 - 11:34 24.2°C / 50%
h3-hermonville 25-07-2026 - 11:30 24.1°C / 49.5%
h2-hermonville 25-07-2026 - 11:24 22.6°C / 55.5%
h1-hermonville 25-07-2026 - 11:24 23.9°C / 51%
h3-hermonville 25-07-2026 - 11:20 23.8°C / 51%
h2-hermonville 25-07-2026 - 11:14 22.2°C / 56.5%
h1-hermonville 25-07-2026 - 11:14 23.6°C / 52%
h3-hermonville 25-07-2026 - 11:10 24°C / 50.5%
h2-hermonville 25-07-2026 - 11:04 22.3°C / 56.5%
h1-hermonville 25-07-2026 - 11:04 23.7°C / 51.5%
h3-hermonville 25-07-2026 - 11:00 23.5°C / 52.5%
h2-hermonville 25-07-2026 - 10:54 22°C / 57%
h1-hermonville 25-07-2026 - 10:54 23.5°C / 53%
h3-hermonville 25-07-2026 - 10:50 23.3°C / 53%
h2-hermonville 25-07-2026 - 10:44 22°C / 56.5%
h1-hermonville 25-07-2026 - 10:44 23.1°C / 53%
h3-hermonville 25-07-2026 - 10:40 22.9°C / 53.5%
h2-hermonville 25-07-2026 - 10:34 21.6°C / 58%
h1-hermonville 25-07-2026 - 10:34 22.6°C / 53.5%
h3-hermonville 25-07-2026 - 10:30 22.3°C / 53.5%
h1-hermonville 25-07-2026 - 10:24 22°C / 54.5%
h3-hermonville 25-07-2026 - 10:20 22.1°C / 56%
h2-hermonville 25-07-2026 - 10:14 21.2°C / 59.5%
h1-hermonville 25-07-2026 - 10:14 21.9°C / 56.5%
h3-hermonville 25-07-2026 - 10:10 21.9°C / 56.5%
h2-hermonville 25-07-2026 - 10:04 20.8°C / 60.5%
h1-hermonville 25-07-2026 - 10:04 21.5°C / 58.5%
h3-hermonville 25-07-2026 - 10:00 21.3°C / 57.5%
h2-hermonville 25-07-2026 - 09:54 20.5°C / 62%
h1-hermonville 25-07-2026 - 09:54 21°C / 60.5%
h3-hermonville 25-07-2026 - 09:50 20.9°C / 60.5%
h4-hermonville 25-07-2026 - 09:48 28.4°C / 41%
h2-hermonville 25-07-2026 - 09:44 20.1°C / 64%
h3-hermonville 25-07-2026 - 09:40 20.8°C / 61%
h4-hermonville 25-07-2026 - 09:38 27°C / 44.5%
h2-hermonville 25-07-2026 - 09:34 20°C / 64%
h1-hermonville 25-07-2026 - 09:34 20.1°C / 64%
h3-hermonville 25-07-2026 - 09:30 20.6°C / 61.5%
h4-hermonville 25-07-2026 - 09:28 25.9°C / 46.5%
h2-hermonville 25-07-2026 - 09:24 20°C / 64%
h1-hermonville 25-07-2026 - 09:24 19.8°C / 64.5%
h3-hermonville 25-07-2026 - 09:20 20.3°C / 62%
h4-hermonville 25-07-2026 - 09:18 25°C / 48%
h1-hermonville 25-07-2026 - 09:14 19.3°C / 65.5%
h3-hermonville 25-07-2026 - 09:10 20.1°C / 62%
h4-hermonville 25-07-2026 - 09:08 24.4°C / 49.5%
h2-hermonville 25-07-2026 - 09:04 19.5°C / 64.5%
h1-hermonville 25-07-2026 - 09:04 18.8°C / 67%
h3-hermonville 25-07-2026 - 09:00 19.9°C / 63%
h2-hermonville 25-07-2026 - 08:54 19.6°C / 65%
h1-hermonville 25-07-2026 - 08:54 18.6°C / 68.5%
h3-hermonville 25-07-2026 - 08:50 19.8°C / 64%
h4-hermonville 25-07-2026 - 08:48 22°C / 57%
h2-hermonville 25-07-2026 - 08:44 19.6°C / 65.5%
h1-hermonville 25-07-2026 - 08:44 18.3°C / 69.5%
h3-hermonville 25-07-2026 - 08:40 19.8°C / 64.5%
h4-hermonville 25-07-2026 - 08:38 20.5°C / 61%
h2-hermonville 25-07-2026 - 08:34 19.2°C / 67%
h1-hermonville 25-07-2026 - 08:34 18.3°C / 70%
h3-hermonville 25-07-2026 - 08:30 19.5°C / 65%
h4-hermonville 25-07-2026 - 08:28 19.9°C / 63%
h2-hermonville 25-07-2026 - 08:24 18.7°C / 67%
h1-hermonville 25-07-2026 - 08:24 18.3°C / 68.5%
h3-hermonville 25-07-2026 - 08:20 19.1°C / 65%
h4-hermonville 25-07-2026 - 08:18 19.8°C / 61.5%
h2-hermonville 25-07-2026 - 08:14 18.2°C / 68.5%
h1-hermonville 25-07-2026 - 08:14 18.3°C / 68%
h3-hermonville 25-07-2026 - 08:10 18.6°C / 66.5%
h4-hermonville 25-07-2026 - 08:08 19.7°C / 62%
h2-hermonville 25-07-2026 - 08:04 17.8°C / 71%
h1-hermonville 25-07-2026 - 08:04 18.3°C / 69%
h3-hermonville 25-07-2026 - 08:00 18°C / 68.5%
h4-hermonville 25-07-2026 - 07:58 19.5°C / 63%
h2-hermonville 25-07-2026 - 07:54 17.4°C / 71%
h1-hermonville 25-07-2026 - 07:54 18.2°C / 68.5%
h3-hermonville 25-07-2026 - 07:50 17.5°C / 70%
h2-hermonville 25-07-2026 - 07:44 17°C / 72%
h1-hermonville 25-07-2026 - 07:44 17.7°C / 68.5%
h3-hermonville 25-07-2026 - 07:40 17.2°C / 70.5%
h4-hermonville 25-07-2026 - 07:38 19°C / 63.5%
h2-hermonville 25-07-2026 - 07:34 16.5°C / 73%
h1-hermonville 25-07-2026 - 07:34 17.7°C / 68.5%
h3-hermonville 25-07-2026 - 07:30 16.9°C / 71%
h4-hermonville 25-07-2026 - 07:28 18.5°C / 64%
h2-hermonville 25-07-2026 - 07:24 16.3°C / 74%
h1-hermonville 25-07-2026 - 07:24 17.5°C / 68.5%
h3-hermonville 25-07-2026 - 07:20 16.7°C / 71.5%
h2-hermonville 25-07-2026 - 07:14 15.9°C / 75%
h1-hermonville 25-07-2026 - 07:14 17.7°C / 67%
h3-hermonville 25-07-2026 - 07:10 16.5°C / 72%
h4-hermonville 25-07-2026 - 07:08 18.3°C / 63.5%
h1-hermonville 25-07-2026 - 07:04 17.4°C / 68%
h3-hermonville 25-07-2026 - 07:00 16.1°C / 72.5%
h4-hermonville 25-07-2026 - 06:58 17.9°C / 64.5%
h2-hermonville 25-07-2026 - 06:54 15.5°C / 75%
h1-hermonville 25-07-2026 - 06:54 16.9°C / 69.5%
h3-hermonville 25-07-2026 - 06:50 15.8°C / 73.5%
h4-hermonville 25-07-2026 - 06:48 18.1°C / 63.5%
h2-hermonville 25-07-2026 - 06:44 15.3°C / 75.5%
h1-hermonville 25-07-2026 - 06:44 16.9°C / 69.5%
h3-hermonville 25-07-2026 - 06:40 15.5°C / 74%
h4-hermonville 25-07-2026 - 06:38 18.1°C / 63%
h1-hermonville 25-07-2026 - 06:34 16.5°C / 70.5%
h3-hermonville 25-07-2026 - 06:30 15.9°C / 73%
h4-hermonville 25-07-2026 - 06:28 17.5°C / 65%
h1-hermonville 25-07-2026 - 06:24 16°C / 72.5%
h3-hermonville 25-07-2026 - 06:20 15.6°C / 73.5%
h4-hermonville 25-07-2026 - 06:18 17.6°C / 65%
h2-hermonville 25-07-2026 - 06:14 15.4°C / 75%
h1-hermonville 25-07-2026 - 06:14 15.9°C / 72.5%
h3-hermonville 25-07-2026 - 06:10 16°C / 72%
h4-hermonville 25-07-2026 - 06:08 17.2°C / 66.5%
h2-hermonville 25-07-2026 - 06:04 15.5°C / 74%
h1-hermonville 25-07-2026 - 06:04 15.5°C / 74.5%
h3-hermonville 25-07-2026 - 06:00 16°C / 72%
h4-hermonville 25-07-2026 - 05:58 17.2°C / 65.5%
h2-hermonville 25-07-2026 - 05:54 15.9°C / 72.5%
h1-hermonville 25-07-2026 - 05:54 15.6°C / 72.5%
h3-hermonville 25-07-2026 - 05:50 15.8°C / 72.5%
h4-hermonville 25-07-2026 - 05:48 17.8°C / 64.5%
h2-hermonville 25-07-2026 - 05:44 16.1°C / 72.5%
h1-hermonville 25-07-2026 - 05:44 15.5°C / 74%
h3-hermonville 25-07-2026 - 05:40 16.4°C / 70.5%
h4-hermonville 25-07-2026 - 05:38 17.3°C / 66%
h2-hermonville 25-07-2026 - 05:34 15.9°C / 73%
h1-hermonville 25-07-2026 - 05:34 15.6°C / 73.5%
h3-hermonville 25-07-2026 - 05:30 16.4°C / 71%
h4-hermonville 25-07-2026 - 05:28 17.6°C / 65%
h2-hermonville 25-07-2026 - 05:24 16.2°C / 72%
h1-hermonville 25-07-2026 - 05:24 16.3°C / 71%
h3-hermonville 25-07-2026 - 05:20 16.4°C / 70.5%
h4-hermonville 25-07-2026 - 05:18 17.7°C / 65%
h2-hermonville 25-07-2026 - 05:14 16.1°C / 72.5%
h1-hermonville 25-07-2026 - 05:14 16.1°C / 71.5%
h3-hermonville 25-07-2026 - 05:10 16.8°C / 69.5%
h4-hermonville 25-07-2026 - 05:08 17.9°C / 63.5%
h2-hermonville 25-07-2026 - 05:04 16.2°C / 72.5%
h1-hermonville 25-07-2026 - 05:04 16.6°C / 70%
h3-hermonville 25-07-2026 - 05:00 16.9°C / 68.5%
h4-hermonville 25-07-2026 - 04:58 18.4°C / 62%
h2-hermonville 25-07-2026 - 04:54 16.3°C / 71.5%
h1-hermonville 25-07-2026 - 04:54 17.1°C / 69%
h3-hermonville 25-07-2026 - 04:50 17.4°C / 67%
h4-hermonville 25-07-2026 - 04:48 18.4°C / 62.5%
h2-hermonville 25-07-2026 - 04:44 16.4°C / 71.5%
h1-hermonville 25-07-2026 - 04:44 16.7°C / 69.5%
h3-hermonville 25-07-2026 - 04:40 17.2°C / 68%
h4-hermonville 25-07-2026 - 04:38 18.4°C / 62.5%
h2-hermonville 25-07-2026 - 04:34 16.2°C / 73%
h1-hermonville 25-07-2026 - 04:34 17.2°C / 68%
h3-hermonville 25-07-2026 - 04:30 16.5°C / 71%
h4-hermonville 25-07-2026 - 04:28 18.6°C / 61.5%
h2-hermonville 25-07-2026 - 04:24 16.3°C / 72%
h1-hermonville 25-07-2026 - 04:24 17.1°C / 69%
h3-hermonville 25-07-2026 - 04:20 17.1°C / 69%
h4-hermonville 25-07-2026 - 04:18 18.7°C / 61.5%
h2-hermonville 25-07-2026 - 04:14 16.7°C / 70.5%
h1-hermonville 25-07-2026 - 04:14 17°C / 69%
h3-hermonville 25-07-2026 - 04:10 16.7°C / 69.5%
h4-hermonville 25-07-2026 - 04:08 18.9°C / 61.5%
h2-hermonville 25-07-2026 - 04:04 16.5°C / 71%
h1-hermonville 25-07-2026 - 04:04 17.2°C / 68%
h3-hermonville 25-07-2026 - 04:00 16.8°C / 70%
h4-hermonville 25-07-2026 - 03:58 18.8°C / 61%
h2-hermonville 25-07-2026 - 03:54 16.6°C / 71%
h1-hermonville 25-07-2026 - 03:54 16.9°C / 70%
h3-hermonville 25-07-2026 - 03:50 17.4°C / 67.5%
h4-hermonville 25-07-2026 - 03:48 18.7°C / 61.5%
h2-hermonville 25-07-2026 - 03:44 17°C / 69.5%
h1-hermonville 25-07-2026 - 03:44 17.1°C / 68.5%
h3-hermonville 25-07-2026 - 03:40 17.5°C / 67%
h4-hermonville 25-07-2026 - 03:38 19.1°C / 60.5%
h2-hermonville 25-07-2026 - 03:34 17.3°C / 69%
h1-hermonville 25-07-2026 - 03:34 17.9°C / 66.5%
h3-hermonville 25-07-2026 - 03:30 17.5°C / 67.5%
h4-hermonville 25-07-2026 - 03:28 19.1°C / 60.5%
h1-hermonville 25-07-2026 - 03:24 17.9°C / 66%
h4-hermonville 25-07-2026 - 03:18 19.4°C / 59.5%
h2-hermonville 25-07-2026 - 03:14 17.2°C / 69%
h1-hermonville 25-07-2026 - 03:14 18.1°C / 65.5%
h3-hermonville 25-07-2026 - 03:10 18.1°C / 65.5%
h4-hermonville 25-07-2026 - 03:08 19.2°C / 60%
h2-hermonville 25-07-2026 - 03:04 17.5°C / 68.5%
h1-hermonville 25-07-2026 - 03:04 18.2°C / 65%
h3-hermonville 25-07-2026 - 03:00 18°C / 66%
h4-hermonville 25-07-2026 - 02:58 19.7°C / 59%
h2-hermonville 25-07-2026 - 02:54 17.4°C / 68.5%
h1-hermonville 25-07-2026 - 02:54 18.4°C / 64%
h3-hermonville 25-07-2026 - 02:50 18.8°C / 62.5%
h4-hermonville 25-07-2026 - 02:48 19.4°C / 59.5%
h2-hermonville 25-07-2026 - 02:44 17.7°C / 67.5%
h1-hermonville 25-07-2026 - 02:44 18.6°C / 63.5%
h3-hermonville 25-07-2026 - 02:40 19.5°C / 60.5%
h4-hermonville 25-07-2026 - 02:38 19.6°C / 59.5%
h2-hermonville 25-07-2026 - 02:34 17.7°C / 67.5%
h1-hermonville 25-07-2026 - 02:34 18.7°C / 63.5%
h3-hermonville 25-07-2026 - 02:30 19.3°C / 61%
h4-hermonville 25-07-2026 - 02:28 19.6°C / 59%
h2-hermonville 25-07-2026 - 02:24 17.8°C / 67.5%
h1-hermonville 25-07-2026 - 02:24 18.8°C / 63%
h3-hermonville 25-07-2026 - 02:20 18.9°C / 62%
h4-hermonville 25-07-2026 - 02:18 19.8°C / 58.5%
h2-hermonville 25-07-2026 - 02:14 17.9°C / 67%
h1-hermonville 25-07-2026 - 02:14 18.8°C / 63%
h3-hermonville 25-07-2026 - 02:10 19.1°C / 62%
h4-hermonville 25-07-2026 - 02:08 19.9°C / 58.5%
h2-hermonville 25-07-2026 - 02:04 17.9°C / 67%
h1-hermonville 25-07-2026 - 02:04 19°C / 62.5%
h3-hermonville 25-07-2026 - 02:00 18.9°C / 62.5%
h4-hermonville 25-07-2026 - 01:58 20°C / 58%
h2-hermonville 25-07-2026 - 01:54 18.1°C / 66%
h1-hermonville 25-07-2026 - 01:54 19.1°C / 62.5%
h3-hermonville 25-07-2026 - 01:50 19.5°C / 60.5%
h4-hermonville 25-07-2026 - 01:48 20°C / 58%
h2-hermonville 25-07-2026 - 01:44 18.3°C / 65.5%
h1-hermonville 25-07-2026 - 01:44 19.2°C / 62%
h3-hermonville 25-07-2026 - 01:40 19.8°C / 60%
h4-hermonville 25-07-2026 - 01:38 20.2°C / 57.5%
h2-hermonville 25-07-2026 - 01:34 18.4°C / 65%
h1-hermonville 25-07-2026 - 01:34 19.3°C / 62%
h3-hermonville 25-07-2026 - 01:30 19.6°C / 61%
h4-hermonville 25-07-2026 - 01:28 20.3°C / 57%
h2-hermonville 25-07-2026 - 01:24 18.5°C / 65%
h1-hermonville 25-07-2026 - 01:24 19.3°C / 62%
h3-hermonville 25-07-2026 - 01:20 19.2°C / 61.5%
h4-hermonville 25-07-2026 - 01:18 20.4°C / 57%
h2-hermonville 25-07-2026 - 01:14 18.6°C / 64.5%
h1-hermonville 25-07-2026 - 01:14 19.4°C / 62%
h3-hermonville 25-07-2026 - 01:10 19.8°C / 60.5%
h4-hermonville 25-07-2026 - 01:08 20.5°C / 57%
h2-hermonville 25-07-2026 - 01:04 18.9°C / 64%
h1-hermonville 25-07-2026 - 01:04 19.3°C / 62%
h3-hermonville 25-07-2026 - 01:00 19.4°C / 61%
h4-hermonville 25-07-2026 - 00:58 20.8°C / 56%
h2-hermonville 25-07-2026 - 00:54 19.2°C / 62.5%
h1-hermonville 25-07-2026 - 00:54 19.4°C / 61.5%
h3-hermonville 25-07-2026 - 00:50 19.3°C / 61.5%
h4-hermonville 25-07-2026 - 00:48 20.9°C / 56%
h2-hermonville 25-07-2026 - 00:44 19.5°C / 61.5%
h1-hermonville 25-07-2026 - 00:44 19.6°C / 61%
h3-hermonville 25-07-2026 - 00:40 19.6°C / 60.5%
h4-hermonville 25-07-2026 - 00:38 20.8°C / 56%
h2-hermonville 25-07-2026 - 00:34 19.7°C / 61%
h1-hermonville 25-07-2026 - 00:34 19.8°C / 60.5%
h3-hermonville 25-07-2026 - 00:30 19.8°C / 60.5%
h4-hermonville 25-07-2026 - 00:28 21°C / 56%
h2-hermonville 25-07-2026 - 00:24 19.8°C / 62%
h1-hermonville 25-07-2026 - 00:24 19.9°C / 61%
h3-hermonville 25-07-2026 - 00:20 20.5°C / 58.5%
h4-hermonville 25-07-2026 - 00:18 21.1°C / 56%
h2-hermonville 25-07-2026 - 00:14 20.1°C / 60.5%
h1-hermonville 25-07-2026 - 00:14 20.3°C / 59%
h3-hermonville 25-07-2026 - 00:10 20.5°C / 59%
h4-hermonville 25-07-2026 - 00:08 21.2°C / 55.5%
h2-hermonville 25-07-2026 - 00:04 20.1°C / 60.5%
h1-hermonville 25-07-2026 - 00:04 20.4°C / 59.5%
h3-hermonville 25-07-2026 - 00:00 20.2°C / 60%